createdAt,value
2018-03-29T00:00:42.319Z,65.67
2018-03-29T00:01:42.319Z,65.77
2018-03-29T00:02:42.332Z,65.19
2018-03-29T00:03:42.346Z,65.58
2018-03-29T00:04:42.362Z,65.48
2018-03-29T00:05:42.380Z,65.19
2018-03-29T00:06:42.394Z,65.48
2018-03-29T00:07:42.123Z,65.38
2018-03-29T00:08:42.416Z,65.29
2018-03-29T00:09:42.430Z,65.19
2018-03-29T00:10:42.163Z,65.1
2018-03-29T00:11:42.463Z,65
2018-03-29T00:12:42.474Z,65.48
2018-03-29T00:13:42.490Z,65.48
2018-03-29T00:14:42.220Z,65.67
2018-03-29T00:15:42.517Z,65
2018-03-29T00:16:42.533Z,65.67
2018-03-29T00:17:42.659Z,65.48
2018-03-29T00:18:42.279Z,65.19
2018-03-29T00:19:42.290Z,65.1
2018-03-29T00:20:42.307Z,65.38
2018-03-29T00:21:42.605Z,65.48
2018-03-29T00:22:42.617Z,65.29
2018-03-29T00:23:42.630Z,65.77
2018-03-29T00:24:42.645Z,65.67
2018-03-29T00:25:42.660Z,65.77
2018-03-29T00:26:42.680Z,65.95
2018-03-29T00:27:42.463Z,66.14
2018-03-29T00:28:42.709Z,66.14
2018-03-29T00:29:42.723Z,66.14
2018-03-29T00:30:42.730Z,66.24
2018-03-29T00:31:42.745Z,65.77
2018-03-29T00:32:42.758Z,66.53
2018-03-29T00:33:42.490Z,66.72
2018-03-29T00:34:42.503Z,66.43
2018-03-29T00:35:42.518Z,66.33
2018-03-29T00:36:42.817Z,66.43
2018-03-29T00:37:42.834Z,66.91
2018-03-29T00:38:42.844Z,66.62
2018-03-29T00:39:42.575Z,66.81
2018-03-29T00:40:42.871Z,66.62
2018-03-29T00:41:42.885Z,67.1
2018-03-29T00:42:42.903Z,66.91
2018-03-29T00:43:42.914Z,67.76
2018-03-29T00:44:42.933Z,67.57
2018-03-29T00:45:42.942Z,67.67
2018-03-29T00:46:42.959Z,67.47
2018-03-29T00:47:42.689Z,68.33
2018-03-29T00:48:42.985Z,67.76
2018-03-29T00:49:43.000Z,67.76
2018-03-29T00:50:43.013Z,68.05
2018-03-29T00:51:43.026Z,67.95
2018-03-29T00:52:43.046Z,68.15
2018-03-29T00:53:43.055Z,68.24
2018-03-29T00:54:42.787Z,68.52
2018-03-29T00:55:43.089Z,68.71
2018-03-29T00:56:42.817Z,68.81
2018-03-29T00:57:42.831Z,68.71
2018-03-29T00:58:43.127Z,68.81
2018-03-29T00:59:43.141Z,68.33
2018-03-29T01:00:43.154Z,69.1
2018-03-29T01:01:42.888Z,68.9
2018-03-29T01:02:43.243Z,69.19
2018-03-29T01:03:43.201Z,69.67
2018-03-29T01:04:43.215Z,69.29
2018-03-29T01:05:43.224Z,69.38
2018-03-29T01:06:43.240Z,69.29
2018-03-29T01:07:42.971Z,69.57
2018-03-29T01:08:43.266Z,69.29
2018-03-29T01:09:43.281Z,69.38
2018-03-29T01:10:43.014Z,69.19
2018-03-29T01:11:43.029Z,69.57
2018-03-29T01:12:43.326Z,69.57
2018-03-29T01:13:43.083Z,69.19
2018-03-29T01:14:43.351Z,69
2018-03-29T01:15:43.366Z,69.1
2018-03-29T01:16:43.098Z,69
2018-03-29T01:17:43.113Z,69.48
2018-03-29T01:18:43.125Z,69.19
2018-03-29T01:19:43.139Z,69.38
2018-03-29T01:20:43.157Z,69.57
2018-03-29T01:21:43.171Z,69.38
2018-03-29T01:22:43.465Z,69.29
2018-03-29T01:23:43.481Z,69.1
2018-03-29T01:24:43.213Z,69.1
2018-03-29T01:25:43.504Z,69.29
2018-03-29T01:26:43.521Z,68.9
2018-03-29T01:27:43.254Z,69.29
2018-03-29T01:28:43.265Z,69.29
2018-03-29T01:29:43.564Z,68.71
2018-03-29T01:30:43.574Z,68.43
2018-03-29T01:31:43.589Z,68.62
2018-03-29T01:32:43.324Z,68.52
2018-03-29T01:33:43.623Z,68.59
2018-03-29T01:34:43.641Z,68.49
2018-03-29T01:35:43.650Z,68.59
2018-03-29T01:36:43.658Z,68.21
2018-03-29T01:37:43.672Z,68.77
2018-03-29T01:38:43.406Z,68.49
2018-03-29T01:39:43.417Z,68.59
2018-03-29T01:40:43.432Z,69.35
2018-03-29T01:41:43.730Z,69.35
2018-03-29T01:42:43.460Z,69.35
2018-03-29T01:43:43.766Z,68.87
2018-03-29T01:44:43.488Z,68.59
2018-03-29T01:45:43.794Z,68.49
2018-03-29T01:46:43.516Z,68.77
2018-03-29T01:47:43.528Z,68.4
2018-03-29T01:48:43.829Z,68.11
2018-03-29T01:49:43.558Z,68.4
2018-03-29T01:50:43.853Z,68.49
2018-03-29T01:51:43.870Z,68.49
2018-03-29T01:52:43.600Z,68.59
2018-03-29T01:53:43.898Z,68.4
2018-03-29T01:54:43.959Z,68.4
2018-03-29T01:55:43.935Z,68.49
2018-03-29T01:56:43.972Z,68.11
2018-03-29T01:57:43.952Z,68.3
2018-03-29T01:58:43.969Z,68.21
2018-03-29T01:59:43.695Z,68.11
2018-03-29T02:00:43.997Z,68.01
2018-03-29T02:01:44.003Z,67.63
2018-03-29T02:02:44.023Z,68.3
2018-03-29T02:03:44.034Z,67.54
2018-03-29T02:04:44.095Z,67.44
2018-03-29T02:05:44.061Z,67.35
2018-03-29T02:06:43.793Z,67.35
2018-03-29T02:07:44.110Z,67.44
2018-03-29T02:08:43.817Z,67.35
2018-03-29T02:09:44.173Z,67.54
2018-03-29T02:10:44.128Z,67.25
2018-03-29T02:11:44.143Z,67.63
2018-03-29T02:12:44.154Z,67.69
2018-03-29T02:13:43.897Z,67.6
2018-03-29T02:14:44.189Z,67.35
2018-03-29T02:15:43.914Z,67.32
2018-03-29T02:16:44.207Z,67.73
2018-03-29T02:17:44.237Z,67.6
2018-03-29T02:18:43.955Z,67.6
2018-03-29T02:19:44.254Z,67.5
2018-03-29T02:20:44.264Z,68.17
2018-03-29T02:21:44.277Z,67.32
2018-03-29T02:22:44.290Z,67.41
2018-03-29T02:23:44.301Z,67.22
2018-03-29T02:24:44.443Z,67.41
2018-03-29T02:25:44.331Z,67.22
2018-03-29T02:26:44.345Z,67.22
2018-03-29T02:27:44.074Z,67.5
2018-03-29T02:28:44.374Z,67.41
2018-03-29T02:29:44.385Z,67.6
2018-03-29T02:30:44.116Z,67.69
2018-03-29T02:31:44.144Z,67.79
2018-03-29T02:32:44.428Z,67.69
2018-03-29T02:33:44.155Z,67.22
2018-03-29T02:34:44.467Z,67.69
2018-03-29T02:35:44.470Z,67.69
2018-03-29T02:36:44.482Z,67.69
2018-03-29T02:37:44.210Z,67.69
2018-03-29T02:38:44.245Z,67.69
2018-03-29T02:39:44.235Z,67.32
2018-03-29T02:40:44.534Z,67.41
2018-03-29T02:41:44.553Z,67.6
2018-03-29T02:42:44.557Z,67.5
2018-03-29T02:43:44.576Z,67.5
2018-03-29T02:44:44.589Z,67.6
2018-03-29T02:45:44.325Z,67.69
2018-03-29T02:46:44.613Z,67.69
2018-03-29T02:47:44.626Z,67.69
2018-03-29T02:48:44.637Z,67.69
2018-03-29T02:49:44.664Z,67.41
2018-03-29T02:50:44.666Z,67.5
2018-03-29T02:51:44.677Z,67.69
2018-03-29T02:52:44.411Z,67.13
2018-03-29T02:53:44.708Z,67.13
2018-03-29T02:54:44.439Z,67.41
2018-03-29T02:55:44.736Z,67.32
2018-03-29T02:56:44.742Z,67.69
2018-03-29T02:57:44.758Z,67.13
2018-03-29T02:58:44.780Z,67.03
2018-03-29T02:59:44.789Z,67.03
2018-03-29T03:00:44.803Z,66.65
2018-03-29T03:01:44.525Z,66.94
2018-03-29T03:02:44.540Z,66.74
2018-03-29T03:03:44.845Z,66.74
2018-03-29T03:04:44.849Z,66.94
2018-03-29T03:05:44.581Z,67.22
2018-03-29T03:06:44.891Z,67.03
2018-03-29T03:07:44.889Z,66.84
2018-03-29T03:08:44.620Z,67.03
2018-03-29T03:09:44.917Z,67.03
2018-03-29T03:10:44.929Z,66.55
2018-03-29T03:11:44.940Z,66.94
2018-03-29T03:12:44.954Z,67.13
2018-03-29T03:13:44.686Z,66.74
2018-03-29T03:14:44.986Z,66.55
2018-03-29T03:15:45.000Z,66.65
2018-03-29T03:16:45.010Z,66.84
2018-03-29T03:17:45.031Z,66.84
2018-03-29T03:18:45.033Z,66.65
2018-03-29T03:19:44.764Z,66.65
2018-03-29T03:20:45.059Z,66.27
2018-03-29T03:21:45.075Z,66.17
2018-03-29T03:22:45.093Z,66.17
2018-03-29T03:23:45.100Z,66.27
2018-03-29T03:24:44.830Z,66.36
2018-03-29T03:25:45.126Z,66.46
2018-03-29T03:26:44.855Z,67.03
2018-03-29T03:27:44.870Z,66.08
2018-03-29T03:28:45.176Z,66.36
2018-03-29T03:29:45.178Z,66.36
2018-03-29T03:30:45.199Z,66.65
2018-03-29T03:31:45.224Z,66.27
2018-03-29T03:32:45.217Z,66.08
2018-03-29T03:33:45.235Z,65.89
2018-03-29T03:34:44.962Z,65.7
2018-03-29T03:35:45.263Z,65.32
2018-03-29T03:36:44.986Z,65.51
2018-03-29T03:37:45.004Z,65.6
2018-03-29T03:38:45.300Z,65.7
2018-03-29T03:39:45.029Z,65.7
2018-03-29T03:40:45.325Z,65.57
2018-03-29T03:41:45.051Z,66.08
2018-03-29T03:42:45.351Z,65.51
2018-03-29T03:43:45.366Z,64.75
2018-03-29T03:44:45.091Z,65.19
2018-03-29T03:45:45.385Z,65.19
2018-03-29T03:46:45.398Z,64.72
2018-03-29T03:47:45.414Z,64.43
2018-03-29T03:48:45.425Z,64.62
2018-03-29T03:49:45.154Z,64.34
2018-03-29T03:50:45.168Z,63.95
2018-03-29T03:51:45.181Z,63.95
2018-03-29T03:52:45.198Z,64.43
2018-03-29T03:53:45.207Z,63.95
2018-03-29T03:54:45.501Z,63.95
2018-03-29T03:55:45.231Z,63.76
2018-03-29T03:56:45.247Z,63.86
2018-03-29T03:57:45.546Z,63.76
2018-03-29T03:58:45.553Z,63.86
2018-03-29T03:59:45.567Z,63.76
2018-03-29T04:00:45.297Z,63.86
2018-03-29T04:01:45.599Z,64.05
2018-03-29T04:02:45.606Z,64.34
2018-03-29T04:03:45.617Z,64.14
2018-03-29T04:04:45.640Z,64.24
2018-03-29T04:05:45.643Z,64.34
2018-03-29T04:06:45.656Z,63.95
2018-03-29T04:07:45.388Z,64.05
2018-03-29T04:08:45.397Z,63.86
2018-03-29T04:09:45.412Z,63.86
2018-03-29T04:10:45.709Z,63.67
2018-03-29T04:11:45.437Z,63.39
2018-03-29T04:12:45.731Z,63.76
2018-03-29T04:13:45.747Z,63.57
2018-03-29T04:14:45.764Z,63.57
2018-03-29T04:15:45.496Z,63.01
2018-03-29T04:16:45.788Z,62.91
2018-03-29T04:17:45.513Z,62.53
2018-03-29T04:18:45.524Z,62.81
2018-03-29T04:19:45.826Z,62.72
2018-03-29T04:20:45.834Z,62.62
2018-03-29T04:21:45.847Z,62.72
2018-03-29T04:22:45.578Z,62.62
2018-03-29T04:23:45.887Z,62.72
2018-03-29T04:24:45.884Z,62.72
2018-03-29T04:25:45.899Z,63.01
2018-03-29T04:26:45.911Z,63.01
2018-03-29T04:27:45.922Z,62.72
2018-03-29T04:28:45.654Z,62.72
2018-03-29T04:29:45.969Z,62.91
2018-03-29T04:30:45.984Z,63.01
2018-03-29T04:31:45.978Z,62.53
2018-03-29T04:32:45.703Z,62.53
2018-03-29T04:33:46.000Z,62.43
2018-03-29T04:34:45.730Z,62.34
2018-03-29T04:35:46.023Z,62.34
2018-03-29T04:36:45.754Z,62.24
2018-03-29T04:37:46.053Z,62.34
2018-03-29T04:38:46.060Z,62.24
2018-03-29T04:39:46.081Z,62.62
2018-03-29T04:40:46.089Z,62.43
2018-03-29T04:41:46.107Z,62.43
2018-03-29T04:42:46.112Z,62.53
2018-03-29T04:43:46.125Z,62.53
2018-03-29T04:44:45.856Z,62.34
2018-03-29T04:45:46.169Z,62.15
2018-03-29T04:46:45.881Z,62.05
2018-03-29T04:47:46.182Z,62.43
2018-03-29T04:48:46.191Z,62.34
2018-03-29T04:49:46.203Z,62.53
2018-03-29T04:50:46.216Z,61.87
2018-03-29T04:51:45.947Z,61.29
2018-03-29T04:52:46.241Z,61.58
2018-03-29T04:53:46.251Z,61.87
2018-03-29T04:54:45.984Z,61.48
2018-03-29T04:55:45.994Z,61.39
2018-03-29T04:56:46.292Z,61.48
2018-03-29T04:57:46.018Z,61.58
2018-03-29T04:58:46.323Z,61.77
2018-03-29T04:59:46.046Z,61.29
2018-03-29T05:00:46.342Z,61.39
2018-03-29T05:01:46.361Z,61.68
2018-03-29T05:02:46.372Z,61.48
2018-03-29T05:03:46.378Z,61.58
2018-03-29T05:04:46.105Z,61.58
2018-03-29T05:05:46.120Z,61.48
2018-03-29T05:06:46.420Z,61.39
2018-03-29T05:07:46.145Z,61.39
2018-03-29T05:08:46.446Z,61.58
2018-03-29T05:09:46.455Z,61.1
2018-03-29T05:10:46.465Z,60.82
2018-03-29T05:11:46.477Z,61.1
2018-03-29T05:12:46.504Z,60.91
2018-03-29T05:13:46.499Z,61.1
2018-03-29T05:14:46.232Z,61.1
2018-03-29T05:15:46.294Z,60.91
2018-03-29T05:16:46.540Z,61.1
2018-03-29T05:17:46.553Z,61.17
2018-03-29T05:18:46.566Z,61.26
2018-03-29T05:19:46.573Z,61.36
2018-03-29T05:20:46.305Z,61.45
2018-03-29T05:21:46.318Z,61.26
2018-03-29T05:22:46.329Z,61.65
2018-03-29T05:23:46.342Z,61.77
2018-03-29T05:24:46.356Z,61.87
2018-03-29T05:25:46.369Z,61.77
2018-03-29T05:26:46.379Z,61.58
2018-03-29T05:27:46.677Z,61.58
2018-03-29T05:28:46.732Z,61.87
2018-03-29T05:29:46.706Z,61.29
2018-03-29T05:30:46.481Z,60.82
2018-03-29T05:31:46.725Z,61.1
2018-03-29T05:32:46.454Z,61.2
2018-03-29T05:33:46.755Z,60.82
2018-03-29T05:34:46.766Z,60.82
2018-03-29T05:35:46.779Z,60.72
2018-03-29T05:36:46.790Z,60.82
2018-03-29T05:37:46.799Z,61.01
2018-03-29T05:38:46.814Z,61.1
2018-03-29T05:39:46.825Z,60.5
2018-03-29T05:40:46.897Z,60.72
2018-03-29T05:41:46.565Z,61.01
2018-03-29T05:42:46.863Z,60.91
2018-03-29T05:43:46.876Z,61.01
2018-03-29T05:44:46.886Z,61.17
2018-03-29T05:45:46.971Z,61.01
2018-03-29T05:46:46.629Z,61.1
2018-03-29T05:47:46.921Z,61.2
2018-03-29T05:48:46.652Z,61.29
2018-03-29T05:49:46.948Z,61.39
2018-03-29T05:50:47.011Z,61.39
2018-03-29T05:51:46.973Z,60.82
2018-03-29T05:52:46.984Z,60.91
2018-03-29T05:53:46.997Z,60.91
2018-03-29T05:54:46.767Z,60.53
2018-03-29T05:55:47.073Z,61.1
2018-03-29T05:56:47.033Z,61.01
2018-03-29T05:57:46.764Z,61.2
2018-03-29T05:58:47.068Z,61.01
2018-03-29T05:59:47.071Z,61.01
2018-03-29T06:00:47.081Z,60.72
2018-03-29T06:01:47.095Z,61.01
2018-03-29T06:02:46.850Z,60.44
2018-03-29T06:03:47.123Z,60.72
2018-03-29T06:04:47.137Z,61.01
2018-03-29T06:05:46.864Z,60.72
2018-03-29T06:06:46.878Z,60.91
2018-03-29T06:07:47.169Z,60.82
2018-03-29T06:08:46.901Z,61.01
2018-03-29T06:09:46.912Z,60.82
2018-03-29T06:10:47.210Z,61.2
2018-03-29T06:11:47.219Z,61.29
2018-03-29T06:12:46.948Z,61.01
2018-03-29T06:13:46.963Z,61.1
2018-03-29T06:14:47.258Z,61.01
2018-03-29T06:15:47.268Z,60.91
2018-03-29T06:16:47.284Z,61.2
2018-03-29T06:17:47.381Z,60.91
2018-03-29T06:18:47.025Z,60.91
2018-03-29T06:19:47.319Z,60.91
2018-03-29T06:20:47.331Z,60.91
2018-03-29T06:21:47.341Z,61.01
2018-03-29T06:22:47.357Z,61.01
2018-03-29T06:23:47.366Z,61.1
2018-03-29T06:24:47.097Z,61.1
2018-03-29T06:25:47.395Z,60.91
2018-03-29T06:26:47.405Z,60.82
2018-03-29T06:27:47.422Z,60.82
2018-03-29T06:28:47.148Z,60.63
2018-03-29T06:29:47.161Z,60.44
2018-03-29T06:30:47.456Z,60.44
2018-03-29T06:31:47.469Z,60.53
2018-03-29T06:32:47.481Z,60.44
2018-03-29T06:33:47.491Z,60.63
2018-03-29T06:34:47.508Z,60.82
2018-03-29T06:35:47.517Z,61.01
2018-03-29T06:36:47.247Z,61.01
2018-03-29T06:37:47.544Z,60.91
2018-03-29T06:38:47.558Z,60.63
2018-03-29T06:39:47.568Z,61.1
2018-03-29T06:40:47.298Z,60.25
2018-03-29T06:41:47.309Z,60.53
2018-03-29T06:42:47.603Z,60.63
2018-03-29T06:43:47.619Z,60.25
2018-03-29T06:44:47.628Z,60.53
2018-03-29T06:45:47.652Z,60.44
2018-03-29T06:46:47.690Z,60.06
2018-03-29T06:47:47.671Z,60.16
2018-03-29T06:48:47.395Z,59.87
2018-03-29T06:49:47.409Z,59.77
2018-03-29T06:50:47.422Z,60.06
2018-03-29T06:51:47.714Z,60.06
2018-03-29T06:52:47.465Z,60.57
2018-03-29T06:53:47.459Z,60.57
2018-03-29T06:54:47.783Z,60.09
2018-03-29T06:55:47.771Z,60.09
2018-03-29T06:56:47.496Z,59.99
2018-03-29T06:57:47.509Z,59.99
2018-03-29T06:58:47.521Z,59.99
2018-03-29T06:59:47.535Z,59.99
2018-03-29T07:00:47.560Z,59.9
2018-03-29T07:01:47.840Z,59.8
2018-03-29T07:02:47.570Z,59.9
2018-03-29T07:03:47.873Z,59.9
2018-03-29T07:04:47.598Z,60.09
2018-03-29T07:05:47.893Z,59.61
2018-03-29T07:06:47.622Z,59.9
2018-03-29T07:07:47.683Z,59.52
2018-03-29T07:08:47.648Z,59.61
2018-03-29T07:09:47.944Z,59.42
2018-03-29T07:10:47.956Z,59.61
2018-03-29T07:11:47.974Z,59.9
2018-03-29T07:12:47.980Z,59.9
2018-03-29T07:13:47.996Z,59.33
2018-03-29T07:14:47.723Z,59.61
2018-03-29T07:15:47.960Z,59.61
2018-03-29T07:16:47.754Z,59.71
2018-03-29T07:17:48.045Z,59.71
2018-03-29T07:18:48.060Z,59.8
2018-03-29T07:19:48.075Z,59.61
2018-03-29T07:20:48.084Z,59.61
2018-03-29T07:21:47.866Z,59.8
2018-03-29T07:22:48.112Z,59.8
2018-03-29T07:23:48.121Z,59.42
2018-03-29T07:24:48.135Z,59.52
2018-03-29T07:25:48.150Z,59.99
2018-03-29T07:26:48.209Z,59.8
2018-03-29T07:27:48.172Z,59.52
2018-03-29T07:28:47.926Z,59.45
2018-03-29T07:29:47.916Z,59.52
2018-03-29T07:30:48.218Z,59.71
2018-03-29T07:31:48.275Z,59.71
2018-03-29T07:32:47.955Z,59.74
2018-03-29T07:33:47.967Z,59.74
2018-03-29T07:34:48.261Z,59.27
2018-03-29T07:35:48.306Z,59.64
2018-03-29T07:36:48.289Z,59.83
2018-03-29T07:37:48.023Z,60.02
2018-03-29T07:38:48.313Z,59.36
2018-03-29T07:39:48.046Z,59.36
2018-03-29T07:40:48.344Z,58.98
2018-03-29T07:41:48.068Z,59.17
2018-03-29T07:42:48.364Z,58.79
2018-03-29T07:43:48.095Z,58.69
2018-03-29T07:44:48.391Z,58.88
2018-03-29T07:45:48.475Z,58.88
2018-03-29T07:46:48.136Z,58.79
2018-03-29T07:47:48.147Z,58.88
2018-03-29T07:48:48.160Z,58.98
2018-03-29T07:49:48.174Z,58.79
2018-03-29T07:50:48.186Z,58.98
2018-03-29T07:51:48.485Z,59.45
2018-03-29T07:52:48.494Z,59.36
2018-03-29T07:53:48.507Z,59.36
2018-03-29T07:54:48.553Z,59.36
2018-03-29T07:55:48.534Z,59.36
2018-03-29T07:56:48.548Z,58.98
2018-03-29T07:57:48.564Z,58.91
2018-03-29T07:58:48.574Z,58.81
2018-03-29T07:59:48.588Z,59.1
2018-03-29T08:00:48.600Z,58.91
2018-03-29T08:01:48.613Z,58.72
2018-03-29T08:02:48.628Z,59.1
2018-03-29T08:03:48.638Z,59.1
2018-03-29T08:04:48.653Z,58.44
2018-03-29T08:05:48.668Z,58.44
2018-03-29T08:06:48.397Z,58.15
2018-03-29T08:07:48.698Z,58.34
2018-03-29T08:08:48.709Z,58.72
2018-03-29T08:09:48.720Z,58.72
2018-03-29T08:10:48.449Z,58.72
2018-03-29T08:11:48.747Z,59.1
2018-03-29T08:12:48.763Z,59.1
2018-03-29T08:13:48.859Z,58.91
2018-03-29T08:14:48.506Z,58.72
2018-03-29T08:15:48.808Z,58.81
2018-03-29T08:16:48.813Z,58.81
2018-03-29T08:17:48.827Z,59.48
2018-03-29T08:18:48.566Z,58.91
2018-03-29T08:19:48.852Z,58.62
2018-03-29T08:20:48.865Z,58.81
2018-03-29T08:21:48.900Z,58.91
2018-03-29T08:22:48.895Z,58.91
2018-03-29T08:23:48.904Z,58.91
2018-03-29T08:24:48.923Z,58.91
2018-03-29T08:25:48.944Z,58.91
2018-03-29T08:26:48.665Z,59.2
2018-03-29T08:27:48.961Z,59.1
2018-03-29T08:28:48.975Z,58.72
2018-03-29T08:29:48.986Z,58.91
2018-03-29T08:30:48.719Z,59.01
2018-03-29T08:31:48.731Z,58.62
2018-03-29T08:32:48.847Z,58.72
2018-03-29T08:33:48.759Z,59.01
2018-03-29T08:34:49.055Z,58.91
2018-03-29T08:35:49.077Z,58.53
2018-03-29T08:36:49.080Z,58.44
2018-03-29T08:37:49.096Z,58.34
2018-03-29T08:38:49.109Z,58.34
2018-03-29T08:39:49.125Z,58.25
2018-03-29T08:40:48.856Z,58.34
2018-03-29T08:41:49.153Z,58.25
2018-03-29T08:42:48.902Z,58.53
2018-03-29T08:43:48.893Z,58.53
2018-03-29T08:44:49.190Z,57.77
2018-03-29T08:45:49.204Z,58.15
2018-03-29T08:46:48.934Z,57.87
2018-03-29T08:47:48.950Z,57.77
2018-03-29T08:48:48.960Z,57.67
2018-03-29T08:49:49.256Z,58.06
2018-03-29T08:50:49.274Z,58.34
2018-03-29T08:51:49.282Z,57.67
2018-03-29T08:52:49.016Z,58.15
2018-03-29T08:53:49.029Z,57.67
2018-03-29T08:54:49.323Z,57.77
2018-03-29T08:55:49.339Z,57.67
2018-03-29T08:56:49.071Z,57.77
2018-03-29T08:57:49.085Z,57.39
2018-03-29T08:58:49.382Z,57.01
2018-03-29T08:59:49.401Z,56.72
2018-03-29T09:00:49.123Z,57.39
2018-03-29T09:01:49.435Z,57.29
2018-03-29T09:02:49.151Z,57.01
2018-03-29T09:03:49.449Z,57.1
2018-03-29T09:04:49.463Z,56.63
2018-03-29T09:05:49.477Z,56.53
2018-03-29T09:06:49.490Z,56.72
2018-03-29T09:07:49.503Z,56.72
2018-03-29T09:08:49.587Z,56.82
2018-03-29T09:09:49.246Z,56.53
2018-03-29T09:10:49.552Z,56.63
2018-03-29T09:11:49.559Z,56.15
2018-03-29T09:12:49.570Z,56.44
2018-03-29T09:13:49.302Z,56.44
2018-03-29T09:14:49.600Z,56.24
2018-03-29T09:15:49.330Z,56.53
2018-03-29T09:16:49.343Z,56.44
2018-03-29T09:17:49.359Z,56.44
2018-03-29T09:18:49.369Z,56.24
2018-03-29T09:19:49.669Z,57.01
2018-03-29T09:20:49.681Z,56.18
2018-03-29T09:21:49.409Z,55.8
2018-03-29T09:22:49.708Z,55.61
2018-03-29T09:23:49.724Z,54.94
2018-03-29T09:24:49.734Z,55.04
2018-03-29T09:25:49.751Z,54.66
2018-03-29T09:26:49.764Z,54.08
2018-03-29T09:27:49.493Z,54.08
2018-03-29T09:28:49.794Z,54.56
2018-03-29T09:29:49.849Z,53.8
2018-03-29T09:30:49.820Z,53.32
2018-03-29T09:31:49.559Z,52.75
2018-03-29T09:32:49.562Z,52.66
2018-03-29T09:33:49.861Z,52.75
2018-03-29T09:34:49.592Z,52.37
2018-03-29T09:35:49.888Z,53.04
2018-03-29T09:36:49.905Z,52.75
2018-03-29T09:37:49.638Z,52.66
2018-03-29T09:38:49.931Z,52.47
2018-03-29T09:39:49.661Z,52.28
2018-03-29T09:40:49.963Z,52.37
2018-03-29T09:41:49.974Z,52.18
2018-03-29T09:42:49.704Z,52.37
2018-03-29T09:43:49.717Z,52.09
2018-03-29T09:44:50.019Z,51.99
2018-03-29T09:45:50.027Z,51.61
2018-03-29T09:46:50.044Z,51.61
2018-03-29T09:47:50.135Z,51.7
2018-03-29T09:48:50.070Z,51.61
2018-03-29T09:49:50.085Z,51.32
2018-03-29T09:50:49.826Z,51.51
2018-03-29T09:51:50.113Z,51.61
2018-03-29T09:52:50.129Z,51.61
2018-03-29T09:53:50.149Z,51.32
2018-03-29T09:54:50.160Z,51.42
2018-03-29T09:55:50.175Z,51.42
2018-03-29T09:56:50.196Z,51.61
2018-03-29T09:57:50.202Z,51.61
2018-03-29T09:58:50.213Z,51.7
2018-03-29T09:59:49.943Z,51.8
2018-03-29T10:00:49.957Z,51.7
2018-03-29T10:01:50.255Z,51.73
2018-03-29T10:02:49.989Z,51.35
2018-03-29T10:03:50.002Z,51.32
2018-03-29T10:04:50.308Z,51.14
2018-03-29T10:05:50.313Z,50.78
2018-03-29T10:06:50.046Z,50.78
2018-03-29T10:07:50.340Z,50.78
2018-03-29T10:08:50.356Z,50.59
2018-03-29T10:09:50.377Z,50.97
2018-03-29T10:10:50.100Z,50.49
2018-03-29T10:11:50.115Z,50.4
2018-03-29T10:12:50.143Z,50.59
2018-03-29T10:13:50.431Z,50.97
2018-03-29T10:14:50.447Z,50.68
2018-03-29T10:15:50.173Z,50.59
2018-03-29T10:16:50.188Z,50.4
2018-03-29T10:17:50.201Z,50.49
2018-03-29T10:18:50.219Z,50.4
2018-03-29T10:19:50.516Z,49.73
2018-03-29T10:20:50.534Z,49.73
2018-03-29T10:21:50.264Z,49.44
2018-03-29T10:22:50.555Z,49.73
2018-03-29T10:23:50.571Z,49.73
2018-03-29T10:24:50.584Z,48.97
2018-03-29T10:25:50.600Z,49.26
2018-03-29T10:26:50.332Z,48.97
2018-03-29T10:27:50.345Z,48.9
2018-03-29T10:28:50.649Z,48.78
2018-03-29T10:29:50.658Z,48.52
2018-03-29T10:30:50.700Z,49.08
2018-03-29T10:31:50.690Z,48.42
2018-03-29T10:32:50.704Z,48.39
2018-03-29T10:33:50.719Z,48.71
2018-03-29T10:34:50.735Z,48.68
2018-03-29T10:35:50.832Z,48.8
2018-03-29T10:36:50.761Z,48.71
2018-03-29T10:37:50.775Z,48.52
2018-03-29T10:38:50.844Z,48.71
2018-03-29T10:39:50.807Z,48.23
2018-03-29T10:40:50.536Z,48.23
2018-03-29T10:41:50.836Z,48.32
2018-03-29T10:42:50.850Z,48.32
2018-03-29T10:43:50.872Z,47.85
2018-03-29T10:44:50.598Z,47.47
2018-03-29T10:45:50.896Z,47.28
2018-03-29T10:46:50.908Z,47.47
2018-03-29T10:47:50.924Z,47.28
2018-03-29T10:48:50.654Z,47.18
2018-03-29T10:49:50.953Z,46.99
2018-03-29T10:50:50.688Z,46.89
2018-03-29T10:51:50.699Z,47.37
2018-03-29T10:52:50.715Z,47.37
2018-03-29T10:53:51.014Z,47.56
2018-03-29T10:54:50.745Z,47.75
2018-03-29T10:55:51.045Z,47.85
2018-03-29T10:56:51.061Z,47.75
2018-03-29T10:57:51.073Z,47.47
2018-03-29T10:58:51.088Z,47.47
2018-03-29T10:59:51.105Z,47.56
2018-03-29T11:00:51.124Z,47.56
2018-03-29T11:01:50.871Z,47.75
2018-03-29T11:02:51.146Z,47.85
2018-03-29T11:03:51.162Z,47.87
2018-03-29T11:04:51.185Z,47.78
2018-03-29T11:05:50.910Z,47.85
2018-03-29T11:06:51.206Z,47.75
2018-03-29T11:07:50.942Z,47.49
2018-03-29T11:08:51.239Z,47.87
2018-03-29T11:09:51.252Z,48.07
2018-03-29T11:10:50.986Z,48.13
2018-03-29T11:11:51.286Z,48.16
2018-03-29T11:12:51.301Z,48.07
2018-03-29T11:13:51.312Z,47.49
2018-03-29T11:14:51.333Z,47.78
2018-03-29T11:15:51.349Z,47.78
2018-03-29T11:16:51.078Z,47.39
2018-03-29T11:17:51.378Z,47.49
2018-03-29T11:18:51.117Z,47.49
2018-03-29T11:19:51.122Z,46.73
2018-03-29T11:20:51.423Z,46.73
2018-03-29T11:21:51.434Z,46.82
2018-03-29T11:22:51.450Z,46.92
2018-03-29T11:23:51.184Z,47.02
2018-03-29T11:24:51.483Z,46.92
2018-03-29T11:25:51.505Z,46.92
2018-03-29T11:26:51.513Z,46.73
2018-03-29T11:27:51.530Z,46.92
2018-03-29T11:28:51.274Z,46.73
2018-03-29T11:29:51.558Z,46.73
2018-03-29T11:30:51.580Z,46.92
2018-03-29T11:31:51.588Z,46.54
2018-03-29T11:32:51.324Z,46.15
2018-03-29T11:33:51.619Z,46.44
2018-03-29T11:34:51.637Z,46.44
2018-03-29T11:35:51.366Z,46.06
2018-03-29T11:36:51.670Z,46.44
2018-03-29T11:37:51.687Z,46.08
2018-03-29T11:38:51.766Z,46.18
2018-03-29T11:39:51.428Z,45.7
2018-03-29T11:40:51.729Z,45.42
2018-03-29T11:41:51.743Z,45.7
2018-03-29T11:42:51.763Z,45.22
2018-03-29T11:43:51.777Z,44.74
2018-03-29T11:44:51.846Z,44.84
2018-03-29T11:45:51.523Z,44.46
2018-03-29T11:46:51.545Z,44.56
2018-03-29T11:47:51.856Z,44.37
2018-03-29T11:48:51.857Z,44.27
2018-03-29T11:49:51.867Z,44.27
2018-03-29T11:50:51.893Z,44.46
2018-03-29T11:51:51.926Z,44.56
2018-03-29T11:52:51.946Z,44.56
2018-03-29T11:53:51.658Z,44.46
2018-03-29T11:54:51.946Z,44.56
2018-03-29T11:55:51.680Z,44.65
2018-03-29T11:56:51.977Z,44.84
2018-03-29T11:57:51.711Z,45.03
2018-03-29T11:58:51.727Z,44.84
2018-03-29T11:59:52.033Z,44.74
2018-03-29T12:00:52.043Z,44.65
2018-03-29T12:01:52.059Z,44.46
2018-03-29T12:02:51.789Z,44.27
2018-03-29T12:03:52.093Z,44.27
2018-03-29T12:04:52.103Z,44.46
2018-03-29T12:05:51.836Z,44.84
2018-03-29T12:06:52.136Z,44.94
2018-03-29T12:07:51.869Z,44.46
2018-03-29T12:08:52.167Z,44.65
2018-03-29T12:09:52.183Z,44.37
2018-03-29T12:10:52.204Z,44.27
2018-03-29T12:11:51.932Z,44.27
2018-03-29T12:12:52.244Z,44.27
2018-03-29T12:13:51.970Z,43.89
2018-03-29T12:14:51.984Z,44.08
2018-03-29T12:15:52.283Z,44.27
2018-03-29T12:16:52.295Z,44.56
2018-03-29T12:17:52.312Z,44.56
2018-03-29T12:18:52.043Z,44.65
2018-03-29T12:19:52.058Z,44.56
2018-03-29T12:20:52.074Z,44.53
2018-03-29T12:21:52.382Z,44.53
2018-03-29T12:22:52.109Z,44.53
2018-03-29T12:23:52.404Z,44.82
2018-03-29T12:24:52.420Z,44.82
2018-03-29T12:25:52.439Z,45.1
2018-03-29T12:26:52.455Z,45.01
2018-03-29T12:27:52.185Z,44.73
2018-03-29T12:28:52.484Z,44.63
2018-03-29T12:29:52.279Z,44.44
2018-03-29T12:30:52.525Z,44.63
2018-03-29T12:31:52.539Z,44.82
2018-03-29T12:32:52.578Z,44.84
2018-03-29T12:33:52.281Z,44.73
2018-03-29T12:34:52.297Z,44.65
2018-03-29T12:35:52.594Z,44.73
2018-03-29T12:36:52.331Z,45.03
2018-03-29T12:37:52.625Z,44.92
2018-03-29T12:38:52.642Z,44.82
2018-03-29T12:39:52.415Z,44.92
2018-03-29T12:40:52.673Z,44.65
2018-03-29T12:41:52.409Z,44.63
2018-03-29T12:42:52.709Z,44.65
2018-03-29T12:43:52.723Z,44.73
2018-03-29T12:44:52.504Z,44.63
2018-03-29T12:45:52.473Z,44.53
2018-03-29T12:46:52.850Z,44.34
2018-03-29T12:47:52.788Z,44.34
2018-03-29T12:48:52.521Z,44.44
2018-03-29T12:49:52.535Z,44.63
2018-03-29T12:50:52.836Z,44.73
2018-03-29T12:51:52.850Z,44.53
2018-03-29T12:52:52.870Z,44.92
2018-03-29T12:53:52.937Z,44.73
2018-03-29T12:54:52.901Z,44.44
2018-03-29T12:55:52.915Z,44.65